createdAt,value
2022-12-27T00:01:24.117Z,99691.25
2022-12-27T00:03:53.273Z,99702.00
2022-12-27T00:06:27.243Z,99709.03
2022-12-27T00:08:56.372Z,99714.38
2022-12-27T00:11:30.463Z,99725.09
2022-12-27T00:14:01.407Z,99721.78
2022-12-27T00:16:30.826Z,99725.09
2022-12-27T00:19:00.307Z,99739.53
2022-12-27T00:21:31.753Z,99728.81
2022-12-27T00:24:02.484Z,99734.16
2022-12-27T00:26:33.899Z,99735.84
2022-12-27T00:29:03.684Z,99734.16
2022-12-27T00:31:34.435Z,99730.47
2022-12-27T00:34:06.279Z,99712.03
2022-12-27T00:36:37.768Z,99639.25
2022-12-27T00:39:07.528Z,99653.13
2022-12-27T00:41:36.433Z,99739.53
2022-12-27T00:44:05.687Z,99739.69
2022-12-27T00:46:35.188Z,99738.69
2022-12-27T00:49:04.676Z,99727.13
2022-12-27T00:51:34.247Z,99741.19
2022-12-27T00:54:05.688Z,99742.91
2022-12-27T00:56:34.808Z,99735.03
2022-12-27T00:59:05.311Z,99729.66
2022-12-27T01:01:37.675Z,99734.16
2022-12-27T01:04:08.251Z,99732.50
2022-12-27T01:06:38.157Z,99662.66
2022-12-27T01:09:08.861Z,99742.06
2022-12-27T01:11:38.189Z,99732.81
2022-12-27T01:14:08.816Z,99745.22
2022-12-27T01:16:38.412Z,99743.88
2022-12-27T01:19:07.216Z,99739.53
2022-12-27T01:21:36.745Z,99744.03
2022-12-27T01:24:10.141Z,99740.53
2022-12-27T01:26:38.662Z,99742.22
2022-12-27T01:29:07.717Z,99733.31
2022-12-27T01:31:38.026Z,99713.50
2022-12-27T01:34:07.240Z,99743.22
2022-12-27T01:36:36.298Z,99750.25
2022-12-27T01:39:05.936Z,99748.59
2022-12-27T01:41:56.228Z,99751.94
2022-12-27T01:45:06.221Z,99751.09
2022-12-27T01:47:42.588Z,99755.63
2022-12-27T01:50:17.741Z,99763.66
2022-12-27T01:52:50.983Z,99773.38
2022-12-27T01:55:25.502Z,99761.84
2022-12-27T01:58:00.632Z,99771.72
2022-12-27T02:00:29.898Z,99772.56
2022-12-27T02:02:59.785Z,99777.06
2022-12-27T02:05:29.682Z,99782.44
2022-12-27T02:08:07.701Z,99794.84
2022-12-27T02:10:38.701Z,99784.09
2022-12-27T02:13:10.481Z,99779.75
2022-12-27T02:15:39.857Z,99777.94
2022-12-27T02:18:09.089Z,99775.41
2022-12-27T02:20:56.338Z,99784.09
2022-12-27T02:24:04.153Z,99786.94
2022-12-27T02:26:55.939Z,99773.69
2022-12-27T02:29:44.151Z,99785.28
2022-12-27T02:32:18.642Z,99786.13
2022-12-27T02:34:55.197Z,99780.09
2022-12-27T02:37:27.719Z,99783.44
2022-12-27T02:40:19.328Z,99780.75
2022-12-27T02:43:06.965Z,99780.75
2022-12-27T02:46:00.515Z,99779.06
2022-12-27T02:48:46.504Z,99776.38
2022-12-27T02:51:50.941Z,99780.94
2022-12-27T02:54:38.401Z,99783.78
2022-12-27T02:57:20.419Z,99783.63
2022-12-27T03:00:24.278Z,99779.06
2022-12-27T03:03:24.612Z,99776.06
2022-12-27T03:06:37.766Z,99791.81
2022-12-27T03:09:34.880Z,99786.78
2022-12-27T03:12:26.445Z,99790.13
2022-12-27T03:15:18.938Z,99807.91
2022-12-27T03:17:55.057Z,99726.63
2022-12-27T03:20:43.746Z,99809.91
2022-12-27T03:23:31.761Z,99813.28
2022-12-27T03:26:02.770Z,99819.44
2022-12-27T03:28:51.416Z,99753.41
2022-12-27T03:31:43.233Z,99825.66
2022-12-27T03:34:29.584Z,99754.09
2022-12-27T03:37:23.279Z,99839.06
2022-12-27T03:39:58.866Z,99836.41
2022-12-27T03:42:47.577Z,99766.63
2022-12-27T03:45:17.432Z,99839.06
2022-12-27T03:47:49.562Z,99847.13
2022-12-27T03:50:26.636Z,99852.47
2022-12-27T03:53:03.618Z,99842.59
2022-12-27T03:55:33.702Z,99836.41
2022-12-27T03:58:02.939Z,99831.03
2022-12-27T04:00:32.090Z,99836.41
2022-12-27T04:03:01.249Z,99834.72
2022-12-27T04:05:30.181Z,99839.75
2022-12-27T04:08:17.407Z,99841.59
2022-12-27T04:11:05.373Z,99752.44
2022-12-27T04:13:51.385Z,99838.06
2022-12-27T04:16:37.025Z,99843.44
2022-12-27T04:19:23.081Z,99845.13
2022-12-27T04:22:08.819Z,99832.03
2022-12-27T04:24:56.809Z,99848.78
2022-12-27T04:27:42.853Z,99828.19
2022-12-27T04:30:29.930Z,99844.28
2022-12-27T04:33:16.059Z,99834.88
2022-12-27T04:35:45.615Z,99843.44
2022-12-27T04:38:14.699Z,99848.78
2022-12-27T04:41:02.388Z,99847.13
2022-12-27T04:43:56.930Z,99859.50
2022-12-27T04:46:45.048Z,99863.22
2022-12-27T04:49:39.818Z,99870.25
2022-12-27T04:52:32.728Z,99873.94
2022-12-27T04:55:05.615Z,99868.56
2022-12-27T04:57:36.546Z,99856.50
2022-12-27T05:00:22.987Z,99866.91
2022-12-27T05:02:51.912Z,99879.28
2022-12-27T05:05:21.451Z,99866.91
2022-12-27T05:08:08.262Z,99870.25
2022-12-27T05:10:54.355Z,99874.94
2022-12-27T05:13:42.347Z,99866.59
2022-12-27T05:16:11.975Z,99856.50
2022-12-27T05:18:41.531Z,99880.00
2022-12-27T05:21:10.831Z,99875.59
2022-12-27T05:24:03.367Z,99888.03
2022-12-27T05:26:35.777Z,99871.09
2022-12-27T05:29:09.048Z,99871.94
2022-12-27T05:31:38.471Z,99874.63
2022-12-27T05:34:08.563Z,99881.81
2022-12-27T05:36:38.011Z,99881.81
2022-12-27T05:39:07.464Z,99884.50
2022-12-27T05:41:36.459Z,99882.66
2022-12-27T05:44:07.846Z,99880.00
2022-12-27T05:46:37.309Z,99881.97
2022-12-27T05:49:06.657Z,99886.34
2022-12-27T05:51:35.773Z,99893.41
2022-12-27T05:54:04.802Z,99889.69
2022-12-27T05:56:35.810Z,99896.72
2022-12-27T05:59:08.523Z,99886.00
2022-12-27T06:01:37.679Z,99894.06
2022-12-27T06:04:07.253Z,99898.44
2022-12-27T06:06:37.010Z,99868.19
2022-12-27T06:09:06.511Z,99907.47
2022-12-27T06:11:35.760Z,99895.75
2022-12-27T06:14:06.344Z,99902.09
2022-12-27T06:16:35.480Z,99893.06
2022-12-27T06:19:04.363Z,99906.47
2022-12-27T06:21:32.942Z,99899.56
2022-12-27T06:24:01.653Z,99910.16
2022-12-27T06:26:31.703Z,99913.69
2022-12-27T06:29:00.910Z,99912.81
2022-12-27T06:31:31.998Z,99905.78
2022-12-27T06:34:01.103Z,99909.50
2022-12-27T06:36:30.692Z,99912.81
2022-12-27T06:38:59.860Z,99921.88
2022-12-27T06:41:28.797Z,99928.91
2022-12-27T06:44:00.002Z,99932.59
2022-12-27T06:46:29.139Z,99932.59
2022-12-27T06:49:00.547Z,99928.91
2022-12-27T06:51:29.954Z,99939.66
2022-12-27T06:53:59.148Z,99940.50
2022-12-27T06:56:28.571Z,99934.28
2022-12-27T06:58:57.439Z,99934.28
2022-12-27T07:01:28.583Z,99931.59
2022-12-27T07:04:02.239Z,99939.66
2022-12-27T07:06:33.255Z,99948.69
2022-12-27T07:09:04.153Z,99941.66
2022-12-27T07:11:34.830Z,99939.97
2022-12-27T07:14:04.770Z,99861.81
2022-12-27T07:16:34.423Z,99951.22
2022-12-27T07:19:06.740Z,99952.06
2022-12-27T07:21:39.204Z,99956.59
2022-12-27T07:24:09.681Z,99952.91
2022-12-27T07:26:40.206Z,99960.13
2022-12-27T07:29:09.400Z,99947.03
2022-12-27T07:31:38.477Z,99963.78
2022-12-27T07:34:09.860Z,99975.53
2022-12-27T07:36:41.536Z,99979.06
2022-12-27T07:39:11.307Z,99882.47
2022-12-27T07:41:40.589Z,99987.91
2022-12-27T07:44:09.810Z,99987.91
2022-12-27T07:46:38.998Z,99990.59
2022-12-27T07:49:17.366Z,99919.91
2022-12-27T07:51:47.030Z,99986.94
2022-12-27T07:54:17.559Z,99971.09
2022-12-27T07:56:46.639Z,99992.47
2022-12-27T07:59:16.418Z,99996.97
2022-12-27T08:01:58.934Z,99996.97
2022-12-27T08:04:30.436Z,99994.28
2022-12-27T08:07:04.010Z,100002.97
2022-12-27T08:09:36.796Z,100013.06
2022-12-27T08:12:06.264Z,100024.63
2022-12-27T08:14:35.491Z,100003.19
2022-12-27T08:17:07.893Z,99941.19
2022-12-27T08:19:38.945Z,100023.78
2022-12-27T08:22:08.245Z,100020.09
2022-12-27T08:24:38.873Z,100036.19
2022-12-27T08:27:08.263Z,100029.16
2022-12-27T08:29:37.586Z,100034.53
2022-12-27T08:32:07.449Z,100023.78
2022-12-27T08:34:38.536Z,100029.16
2022-12-27T08:37:07.554Z,100028.31
2022-12-27T08:39:36.624Z,100034.53
2022-12-27T08:42:06.172Z,100034.53
2022-12-27T08:44:34.674Z,100034.53
2022-12-27T08:47:04.949Z,100033.66
2022-12-27T08:49:34.136Z,100044.38
2022-12-27T08:52:05.017Z,100039.88
2022-12-27T08:54:33.679Z,100047.94
2022-12-27T08:57:03.142Z,100045.25
2022-12-27T08:59:32.252Z,100055.97
2022-12-27T09:02:00.983Z,100055.97
2022-12-27T09:04:29.850Z,100053.28
2022-12-27T09:06:58.555Z,100065.03
2022-12-27T09:09:30.458Z,100077.44
2022-12-27T09:12:02.887Z,100087.16
2022-12-27T09:14:34.451Z,100090.84
2022-12-27T09:17:03.689Z,100093.53
2022-12-27T09:19:32.628Z,100088.16
2022-12-27T09:22:01.998Z,100098.88
2022-12-27T09:24:32.605Z,100110.47
2022-12-27T09:27:01.718Z,100095.81
2022-12-27T09:29:30.913Z,100117.66
2022-12-27T09:32:00.300Z,100115.81
2022-12-27T09:34:29.859Z,100105.25
2022-12-27T09:36:58.977Z,100108.75
2022-12-27T09:39:28.058Z,100109.59
2022-12-27T09:45:01.675Z,100124.03
2022-12-27T09:47:34.856Z,100113.28
2022-12-27T09:50:06.900Z,100113.28
2022-12-27T09:52:42.269Z,100124.03
2022-12-27T09:55:18.727Z,100038.13
2022-12-27T09:57:51.063Z,100126.00
2022-12-27T10:00:35.166Z,100126.00
2022-12-27T10:03:07.268Z,100133.03
2022-12-27T10:05:39.942Z,100144.63
2022-12-27T10:08:30.860Z,100148.31
2022-12-27T10:11:10.606Z,100118.50
2022-12-27T10:13:50.208Z,100091.72
2022-12-27T10:16:30.450Z,100177.97
2022-12-27T10:19:18.486Z,100163.56
2022-12-27T10:22:03.918Z,100167.00
2022-12-27T10:24:41.114Z,100185.00
2022-12-27T10:27:18.506Z,100183.34
2022-12-27T10:29:50.687Z,100210.16
2022-12-27T10:32:19.299Z,100197.56
2022-12-27T10:34:49.929Z,100201.09
2022-12-27T10:37:22.789Z,100210.81
2022-12-27T10:39:52.537Z,100217.19
2022-12-27T10:42:37.739Z,100210.81
2022-12-27T10:45:36.714Z,100209.84
2022-12-27T10:48:22.255Z,100193.91
2022-12-27T10:50:59.644Z,100211.81
2022-12-27T10:53:38.772Z,100201.09
2022-12-27T10:56:19.638Z,100233.28
2022-12-27T10:58:58.450Z,100225.22
2022-12-27T11:01:50.925Z,100220.88
2022-12-27T11:07:22.778Z,100225.69
2022-12-27T11:09:52.237Z,100241.47
2022-12-27T11:12:24.732Z,100231.59
2022-12-27T11:14:58.946Z,100243.16
2022-12-27T11:17:37.350Z,100237.78
2022-12-27T11:20:20.878Z,100248.50
2022-12-27T11:22:53.994Z,100247.69
2022-12-27T11:25:24.158Z,100236.13
2022-12-27T11:27:55.262Z,100255.75
2022-12-27T11:30:27.424Z,100263.78
2022-12-27T11:33:02.567Z,100265.47
2022-12-27T11:35:31.858Z,100235.41
2022-12-27T11:38:00.751Z,100203.66
2022-12-27T11:40:35.032Z,100269.81
2022-12-27T11:43:10.630Z,100252.25
2022-12-27T11:45:42.785Z,100267.13
2022-12-27T11:48:22.787Z,100267.13
2022-12-27T11:51:06.373Z,100262.78
2022-12-27T11:54:08.537Z,100265.47
2022-12-27T11:56:41.722Z,100277.19
2022-12-27T11:59:30.155Z,100272.81
2022-12-27T12:02:33.053Z,100269.97
2022-12-27T12:05:59.767Z,100283.53
2022-12-27T12:08:48.107Z,100297.94
2022-12-27T12:11:27.559Z,100297.94
2022-12-27T12:14:29.446Z,100292.88
2022-12-27T12:17:18.816Z,100314.03
2022-12-27T12:20:05.828Z,100330.13
2022-12-27T12:22:47.724Z,100351.59
2022-12-27T12:25:56.044Z,100335.50
2022-12-27T12:28:59.818Z,100337.16
2022-12-27T12:31:46.909Z,100340.84
2022-12-27T12:34:33.799Z,100330.13
2022-12-27T12:37:22.831Z,100338.16
2022-12-27T12:40:21.526Z,100260.22
2022-12-27T12:42:58.040Z,100325.75
2022-12-27T12:45:40.603Z,100310.00
2022-12-27T12:48:36.363Z,100325.75
2022-12-27T12:51:45.655Z,100328.44
2022-12-27T12:54:48.495Z,100331.13
2022-12-27T12:57:31.196Z,100328.44
2022-12-27T13:00:25.755Z,100339.31
2022-12-27T13:03:23.863Z,100344.53
2022-12-27T13:06:00.093Z,100337.75
2022-12-27T13:08:35.537Z,100333.81
2022-12-27T13:11:20.677Z,100340.00
2022-12-27T13:14:08.631Z,100340.00
2022-12-27T13:16:48.314Z,100351.59
2022-12-27T13:19:40.792Z,100365.00
2022-12-27T13:22:18.412Z,100369.34
2022-12-27T13:25:05.566Z,100369.34
2022-12-27T13:27:39.035Z,100374.88
2022-12-27T13:30:20.795Z,100381.78
2022-12-27T13:33:13.746Z,100382.75
2022-12-27T13:36:01.093Z,100385.44
2022-12-27T13:38:44.934Z,100390.81
2022-12-27T13:41:30.561Z,100385.44
2022-12-27T13:44:31.587Z,100397.88
2022-12-27T13:47:44.165Z,100412.25
2022-12-27T13:50:36.214Z,100409.88
2022-12-27T13:53:25.585Z,100408.91
2022-12-27T13:56:05.930Z,100408.91
2022-12-27T13:59:27.866Z,100410.59
2022-12-27T14:02:20.811Z,100421.31
2022-12-27T14:05:13.778Z,100416.81
2022-12-27T14:07:58.433Z,100425.66
2022-12-27T14:10:36.973Z,100430.34
2022-12-27T14:13:09.055Z,100439.06
2022-12-27T14:16:07.036Z,100448.13
2022-12-27T14:18:49.261Z,100443.63
2022-12-27T14:21:37.319Z,100447.13
2022-12-27T14:24:19.909Z,100449.81
2022-12-27T14:27:15.495Z,100452.50
2022-12-27T14:30:19.599Z,100458.84
2022-12-27T14:33:11.867Z,100456.03
2022-12-27T14:36:23.801Z,100458.84
2022-12-27T14:39:22.845Z,100460.53
2022-12-27T14:42:27.525Z,100469.59
2022-12-27T14:45:57.440Z,100460.81
2022-12-27T14:48:53.556Z,100462.53
2022-12-27T14:52:04.757Z,100450.53
2022-12-27T14:55:22.923Z,100462.53
2022-12-27T14:58:15.714Z,100467.03
2022-12-27T15:01:05.658Z,100460.81
2022-12-27T15:03:55.525Z,100459.16
2022-12-27T15:06:44.982Z,100462.84
2022-12-27T15:09:32.098Z,100395.53
2022-12-27T15:12:15.806Z,100469.59
2022-12-27T15:15:21.368Z,100457.75
2022-12-27T15:18:30.359Z,100476.63
2022-12-27T15:21:18.642Z,100484.00
2022-12-27T15:23:55.843Z,100473.94
2022-12-27T15:26:52.535Z,100463.13
2022-12-27T15:29:37.693Z,100407.06
2022-12-27T15:32:31.891Z,100487.34
2022-12-27T15:35:37.460Z,100471.25
2022-12-27T15:38:14.161Z,100409.88
2022-12-27T15:40:56.448Z,100484.81
2022-12-27T15:43:55.809Z,100479.59
2022-12-27T15:46:53.403Z,100485.66
2022-12-27T15:49:57.418Z,100404.25
2022-12-27T15:52:40.505Z,100470.44
2022-12-27T15:55:29.075Z,100486.53
2022-12-27T15:58:15.522Z,100491.03
2022-12-27T16:00:48.137Z,100489.34
2022-12-27T16:03:39.250Z,100489.34
2022-12-27T16:06:37.096Z,100498.09
2022-12-27T16:09:40.980Z,100485.66
2022-12-27T16:12:16.787Z,100494.72
2022-12-27T16:14:47.298Z,100493.00
2022-12-27T16:17:34.665Z,100499.78
2022-12-27T16:20:43.319Z,100506.28
2022-12-27T16:23:16.334Z,100429.66
2022-12-27T16:25:47.640Z,100507.84
2022-12-27T16:28:28.506Z,100502.47
2022-12-27T16:31:09.128Z,100423.41
2022-12-27T16:33:42.650Z,100411.88
2022-12-27T16:36:33.832Z,100498.94
2022-12-27T16:39:49.613Z,100501.47
2022-12-27T16:42:33.886Z,100505.97
2022-12-27T16:45:07.149Z,100430.06
2022-12-27T16:47:50.101Z,100498.09
2022-12-27T16:50:43.086Z,100498.09
2022-12-27T16:53:42.648Z,100489.06
2022-12-27T16:56:31.929Z,100473.69
2022-12-27T16:59:02.137Z,100482.00
2022-12-27T17:01:48.449Z,100488.22
2022-12-27T17:04:59.873Z,100485.66
2022-12-27T17:07:52.823Z,100419.75
2022-12-27T17:10:41.252Z,100475.25
2022-12-27T17:13:22.144Z,100497.25
2022-12-27T17:16:01.695Z,100508.81
2022-12-27T17:18:34.782Z,100449.66
2022-12-27T17:21:08.770Z,100500.09
2022-12-27T17:23:45.345Z,100497.25
2022-12-27T17:26:30.969Z,100503.44
2022-12-27T17:29:13.128Z,100505.16
2022-12-27T17:31:50.738Z,100491.91
2022-12-27T17:34:32.726Z,100499.09
2022-12-27T17:37:12.972Z,100512.50
2022-12-27T17:39:57.878Z,100512.19
2022-12-27T17:42:54.033Z,100513.06
2022-12-27T17:45:37.868Z,100512.34
2022-12-27T17:48:23.797Z,100514.88
2022-12-27T17:50:55.535Z,100503.72
2022-12-27T17:53:42.697Z,100515.88
2022-12-27T17:56:37.061Z,100510.53
2022-12-27T17:59:11.975Z,100509.53
2022-12-27T18:01:48.868Z,100510.53
2022-12-27T18:04:26.845Z,100510.66
2022-12-27T18:06:57.125Z,100521.25
2022-12-27T18:09:36.845Z,100518.41
2022-12-27T18:12:14.395Z,100519.25
2022-12-27T18:14:43.844Z,100515.75
2022-12-27T18:17:29.063Z,100513.34
2022-12-27T18:19:58.644Z,100522.94
2022-12-27T18:22:29.232Z,100519.25
2022-12-27T18:24:57.791Z,100513.06
2022-12-27T18:27:28.109Z,100512.19
2022-12-27T18:29:56.625Z,100512.19
2022-12-27T18:32:27.607Z,100519.25
2022-12-27T18:34:59.339Z,100533.50
2022-12-27T18:37:29.401Z,100520.38
2022-12-27T18:40:01.324Z,100521.94
2022-12-27T18:42:34.963Z,100523.63
2022-12-27T18:45:26.057Z,100520.97
2022-12-27T18:51:35.329Z,100520.25
2022-12-27T19:16:22.337Z,100539.31
2022-12-27T19:18:54.628Z,100539.31
2022-12-27T19:21:31.794Z,100532.25
2022-12-27T19:24:19.684Z,100538.31
2022-12-27T19:26:47.775Z,100526.03
2022-12-27T19:29:19.095Z,100535.63
2022-12-27T19:31:56.935Z,100542.72
2022-12-27T19:34:28.286Z,100546.34
2022-12-27T19:36:57.539Z,100532.94
2022-12-27T19:39:28.859Z,100542.00
2022-12-27T19:42:01.337Z,100544.38
2022-12-27T19:44:30.128Z,100541.00
2022-12-27T19:46:59.737Z,100535.63
2022-12-27T19:49:42.685Z,100538.16
2022-12-27T19:52:16.796Z,100544.38
2022-12-27T19:54:45.454Z,100554.13
2022-12-27T19:57:13.980Z,100548.06
2022-12-27T19:59:42.676Z,100548.75
2022-12-27T20:02:12.369Z,100537.34
2022-12-27T20:04:40.615Z,100534.50
2022-12-27T20:07:19.436Z,100537.34
2022-12-27T20:09:47.638Z,100542.72
2022-12-27T20:12:17.702Z,100544.38
2022-12-27T20:14:48.229Z,100544.38
2022-12-27T20:17:17.794Z,100541.00
2022-12-27T20:19:46.410Z,100545.25
2022-12-27T20:22:15.078Z,100546.06
2022-12-27T20:24:43.311Z,100543.38
2022-12-27T20:27:12.291Z,100547.78
2022-12-27T20:29:41.694Z,100544.38
2022-12-27T20:32:09.870Z,100537.06
2022-12-27T20:34:40.040Z,100539.03
2022-12-27T20:37:08.362Z,100533.66
2022-12-27T20:39:36.449Z,100539.03
2022-12-27T20:42:05.124Z,100540.84
2022-12-27T20:44:33.597Z,100539.03
2022-12-27T20:47:01.745Z,100539.03
2022-12-27T20:49:32.725Z,100530.25
2022-12-27T20:52:02.632Z,100547.78
2022-12-27T20:54:31.709Z,100547.78
2022-12-27T20:57:01.414Z,100549.47
2022-12-27T20:59:30.670Z,100558.50
2022-12-27T21:01:59.664Z,100554.81
2022-12-27T21:04:28.264Z,100550.47
2022-12-27T21:06:56.478Z,100512.25
2022-12-27T21:09:25.969Z,100542.41
2022-12-27T21:11:54.438Z,100556.50
2022-12-27T21:14:22.947Z,100541.84
2022-12-27T21:16:51.486Z,100545.09
2022-12-27T21:19:22.498Z,100549.47
2022-12-27T21:21:51.023Z,100548.47
2022-12-27T21:24:19.521Z,100550.31
2022-12-27T21:26:54.668Z,100553.16
2022-12-27T21:29:24.631Z,100542.41
2022-12-27T21:31:53.495Z,100546.06
2022-12-27T21:34:22.323Z,100544.09
2022-12-27T21:36:53.121Z,100544.97
2022-12-27T21:39:21.695Z,100544.97
2022-12-27T21:41:51.393Z,100537.06
2022-12-27T21:44:21.314Z,100551.16
2022-12-27T21:46:50.917Z,100551.16
2022-12-27T21:49:21.624Z,100538.72
2022-12-27T21:51:49.922Z,100542.41
2022-12-27T21:54:18.631Z,100553.81
2022-12-27T21:56:46.971Z,100551.16
2022-12-27T21:59:19.222Z,100551.44
2022-12-27T22:01:51.424Z,100547.78
2022-12-27T22:04:22.052Z,100552.16
2022-12-27T22:06:50.832Z,100546.06
2022-12-27T22:09:19.787Z,100553.16
2022-12-27T22:11:48.200Z,100542.13
2022-12-27T22:14:24.896Z,100535.06
2022-12-27T22:16:54.073Z,100531.41
2022-12-27T22:19:22.345Z,100526.03
2022-12-27T22:21:50.534Z,100515.59
2022-12-27T22:24:20.036Z,100520.66
2022-12-27T22:26:50.706Z,100515.59
2022-12-27T22:29:21.862Z,100526.03
2022-12-27T22:31:50.028Z,100520.66
2022-12-27T22:34:18.195Z,100522.63
2022-12-27T22:36:46.643Z,100503.00
2022-12-27T22:39:14.783Z,100503.16
2022-12-27T22:41:42.920Z,100506.25
2022-12-27T22:44:12.883Z,100499.22
2022-12-27T22:47:25.101Z,100509.78
2022-12-27T22:49:31.413Z,100508.94
2022-12-27T22:51:59.590Z,100511.63
2022-12-27T22:55:03.899Z,100507.94
2022-12-27T22:57:16.834Z,100506.25
2022-12-27T22:59:44.964Z,100509.94
2022-12-27T23:02:15.390Z,100506.53
2022-12-27T23:04:43.895Z,100514.31
2022-12-27T23:07:12.204Z,100509.94
2022-12-27T23:09:43.435Z,100513.59
2022-12-27T23:12:12.527Z,100507.25
2022-12-27T23:14:41.107Z,100514.31
2022-12-27T23:17:09.477Z,100509.94
2022-12-27T23:19:39.013Z,100500.03
2022-12-27T23:22:07.626Z,100504.56
2022-12-27T23:24:35.776Z,100500.88
2022-12-27T23:27:04.795Z,100497.22
2022-12-27T23:29:33.023Z,100507.94
2022-12-27T23:32:01.737Z,100509.66
2022-12-27T23:34:29.986Z,100502.56
2022-12-27T23:37:00.240Z,100475.81
2022-12-27T23:39:30.149Z,100490.31
2022-12-27T23:41:58.339Z,100493.84
2022-12-27T23:44:32.990Z,100477.75
2022-12-27T23:47:03.475Z,100476.03
2022-12-27T23:49:31.705Z,100477.47
2022-12-27T23:52:01.465Z,100468.56
2022-12-27T23:54:29.575Z,100462.34
2022-12-27T23:56:57.819Z,100463.03
2022-12-27T23:59:25.939Z,100454.28
